sensor_id;sensor_type;location;lat;lon;timestamp;pressure;altitude;pressure_sealevel;temperature;humidity
53440;BME280;39333;47.044;15.080;2022-08-21T00:00:14;95954.75;;;20.03;53.72
53440;BME280;39333;47.044;15.080;2022-08-21T00:02:57;95953.66;;;20.04;53.08
53440;BME280;39333;47.044;15.080;2022-08-21T00:05:25;95951.50;;;20.15;53.19
53440;BME280;39333;47.044;15.080;2022-08-21T00:07:52;95940.28;;;20.13;53.39
53440;BME280;39333;47.044;15.080;2022-08-21T00:10:20;95943.56;;;20.10;53.18
53440;BME280;39333;47.044;15.080;2022-08-21T00:12:47;95946.25;;;20.10;53.55
53440;BME280;39333;47.044;15.080;2022-08-21T00:15:16;95938.69;;;20.12;53.40
53440;BME280;39333;47.044;15.080;2022-08-21T00:17:43;95943.56;;;20.10;53.69
53440;BME280;39333;47.044;15.080;2022-08-21T00:20:12;95939.59;;;20.07;53.30
53440;BME280;39333;47.044;15.080;2022-08-21T00:22:40;95935.00;;;20.08;53.38
53440;BME280;39333;47.044;15.080;2022-08-21T00:25:08;95929.75;;;20.03;53.79
53440;BME280;39333;47.044;15.080;2022-08-21T00:27:35;95935.25;;;19.98;53.94
53440;BME280;39333;47.044;15.080;2022-08-21T00:30:05;95931.00;;;19.97;53.40
53440;BME280;39333;47.044;15.080;2022-08-21T00:32:32;95922.13;;;19.96;53.60
53440;BME280;39333;47.044;15.080;2022-08-21T00:34:59;95934.78;;;19.96;53.59
53440;BME280;39333;47.044;15.080;2022-08-21T00:37:26;95924.47;;;19.89;54.09
53440;BME280;39333;47.044;15.080;2022-08-21T00:39:55;95915.91;;;19.87;54.26
53440;BME280;39333;47.044;15.080;2022-08-21T00:42:23;95924.28;;;19.85;54.67
53440;BME280;39333;47.044;15.080;2022-08-21T00:44:50;95921.09;;;19.83;54.51
53440;BME280;39333;47.044;15.080;2022-08-21T00:47:19;95916.16;;;19.77;55.05
53440;BME280;39333;47.044;15.080;2022-08-21T00:49:46;95919.66;;;19.77;55.03
53440;BME280;39333;47.044;15.080;2022-08-21T00:52:16;95925.19;;;19.81;54.62
53440;BME280;39333;47.044;15.080;2022-08-21T00:54:44;95925.03;;;19.77;54.89
53440;BME280;39333;47.044;15.080;2022-08-21T00:57:16;95915.38;;;19.76;54.63
53440;BME280;39333;47.044;15.080;2022-08-21T00:59:46;95924.41;;;19.80;54.32
53440;BME280;39333;47.044;15.080;2022-08-21T01:02:14;95917.00;;;19.86;54.38
53440;BME280;39333;47.044;15.080;2022-08-21T01:04:42;95918.28;;;19.88;54.44
53440;BME280;39333;47.044;15.080;2022-08-21T01:07:08;95914.50;;;19.89;53.95
53440;BME280;39333;47.044;15.080;2022-08-21T01:09:37;95911.50;;;19.91;53.45
53440;BME280;39333;47.044;15.080;2022-08-21T01:12:04;95906.91;;;19.91;53.49
53440;BME280;39333;47.044;15.080;2022-08-21T01:14:31;95911.69;;;19.95;53.58
53440;BME280;39333;47.044;15.080;2022-08-21T01:16:59;95911.50;;;19.91;53.92
53440;BME280;39333;47.044;15.080;2022-08-21T01:19:27;95918.09;;;19.85;54.31
53440;BME280;39333;47.044;15.080;2022-08-21T01:21:55;95910.31;;;19.83;54.50
53440;BME280;39333;47.044;15.080;2022-08-21T01:24:22;95905.09;;;19.78;54.64
53440;BME280;39333;47.044;15.080;2022-08-21T01:26:50;95907.47;;;19.80;55.41
53440;BME280;39333;47.044;15.080;2022-08-21T01:32:08;95916.34;;;19.80;54.63
53440;BME280;39333;47.044;15.080;2022-08-21T01:34:38;95912.72;;;19.85;54.97
53440;BME280;39333;47.044;15.080;2022-08-21T01:37:06;95904.16;;;19.83;54.35
53440;BME280;39333;47.044;15.080;2022-08-21T01:39:33;95911.13;;;19.84;54.07
53440;BME280;39333;47.044;15.080;2022-08-21T01:42:00;95912.91;;;19.88;54.14
53440;BME280;39333;47.044;15.080;2022-08-21T01:44:27;95905.13;;;19.87;54.20
53440;BME280;39333;47.044;15.080;2022-08-21T01:46:54;95901.66;;;19.86;54.18
53440;BME280;39333;47.044;15.080;2022-08-21T01:49:21;95890.84;;;19.78;54.80
53440;BME280;39333;47.044;15.080;2022-08-21T01:51:48;95893.06;;;19.76;54.52
53440;BME280;39333;47.044;15.080;2022-08-21T01:54:15;95896.09;;;19.83;53.72
53440;BME280;39333;47.044;15.080;2022-08-21T01:56:46;95891.19;;;19.85;54.38
53440;BME280;39333;47.044;15.080;2022-08-21T01:59:14;95886.13;;;19.83;54.47
53440;BME280;39333;47.044;15.080;2022-08-21T02:01:40;95879.44;;;19.81;54.42
53440;BME280;39333;47.044;15.080;2022-08-21T02:04:09;95889.44;;;19.80;54.39
53440;BME280;39333;47.044;15.080;2022-08-21T02:06:37;95881.38;;;19.80;53.96
53440;BME280;39333;47.044;15.080;2022-08-21T02:09:07;95884.53;;;19.82;54.29
53440;BME280;39333;47.044;15.080;2022-08-21T02:11:34;95878.69;;;19.80;54.37
53440;BME280;39333;47.044;15.080;2022-08-21T02:14:01;95875.03;;;19.76;54.61
53440;BME280;39333;47.044;15.080;2022-08-21T02:16:28;95864.88;;;19.73;54.20
53440;BME280;39333;47.044;15.080;2022-08-21T02:18:58;95866.66;;;19.78;54.24
53440;BME280;39333;47.044;15.080;2022-08-21T02:21:25;95858.88;;;19.76;54.01
53440;BME280;39333;47.044;15.080;2022-08-21T02:23:55;95861.75;;;19.80;53.98
53440;BME280;39333;47.044;15.080;2022-08-21T02:26:22;95861.91;;;19.83;53.95
53440;BME280;39333;47.044;15.080;2022-08-21T02:28:49;95869.19;;;19.83;53.77
53440;BME280;39333;47.044;15.080;2022-08-21T02:31:16;95868.88;;;19.84;53.74
53440;BME280;39333;47.044;15.080;2022-08-21T02:33:43;95857.94;;;19.81;53.55
53440;BME280;39333;47.044;15.080;2022-08-21T02:36:10;95864.59;;;19.83;53.64
53440;BME280;39333;47.044;15.080;2022-08-21T02:38:38;95868.56;;;19.86;52.88
53440;BME280;39333;47.044;15.080;2022-08-21T02:41:09;95864.78;;;19.87;52.76
53440;BME280;39333;47.044;15.080;2022-08-21T02:43:35;95863.25;;;19.95;52.95
53440;BME280;39333;47.044;15.080;2022-08-21T02:46:04;95863.25;;;19.95;53.25
53440;BME280;39333;47.044;15.080;2022-08-21T02:48:32;95856.09;;;19.90;53.71
53440;BME280;39333;47.044;15.080;2022-08-21T02:51:02;95866.38;;;19.88;53.77
53440;BME280;39333;47.044;15.080;2022-08-21T02:53:30;95860.19;;;19.87;53.53
53440;BME280;39333;47.044;15.080;2022-08-21T02:55:59;95854.81;;;19.87;53.78
53440;BME280;39333;47.044;15.080;2022-08-21T02:58:32;95858.88;;;19.76;54.16
53440;BME280;39333;47.044;15.080;2022-08-21T03:01:00;95852.22;;;19.74;54.64
53440;BME280;39333;47.044;15.080;2022-08-21T03:03:28;95850.63;;;19.73;54.04
53440;BME280;39333;47.044;15.080;2022-08-21T03:05:55;95845.69;;;19.66;54.68
53440;BME280;39333;47.044;15.080;2022-08-21T03:08:23;95858.66;;;19.64;55.41
53440;BME280;39333;47.044;15.080;2022-08-21T03:10:53;95859.69;;;19.54;55.33
53440;BME280;39333;47.044;15.080;2022-08-21T03:13:20;95850.53;;;19.55;55.42
53440;BME280;39333;47.044;15.080;2022-08-21T03:15:48;95853.53;;;19.54;55.64
53440;BME280;39333;47.044;15.080;2022-08-21T03:18:15;95853.72;;;19.58;55.88
53440;BME280;39333;47.044;15.080;2022-08-21T03:20:43;95851.31;;;19.56;55.15
53440;BME280;39333;47.044;15.080;2022-08-21T03:23:11;95857.06;;;19.63;55.58
53440;BME280;39333;47.044;15.080;2022-08-21T03:25:45;95857.22;;;19.67;55.49
53440;BME280;39333;47.044;15.080;2022-08-21T03:28:17;95860.72;;;19.67;55.81
53440;BME280;39333;47.044;15.080;2022-08-21T03:30:47;95855.34;;;19.67;55.20
53440;BME280;39333;47.044;15.080;2022-08-21T03:33:15;95854.84;;;19.65;54.36
53440;BME280;39333;47.044;15.080;2022-08-21T03:35:48;95863.56;;;19.62;57.01
53440;BME280;39333;47.044;15.080;2022-08-21T03:38:18;95852.91;;;19.57;55.76
53440;BME280;39333;47.044;15.080;2022-08-21T03:40:51;95861.28;;;19.55;55.10
53440;BME280;39333;47.044;15.080;2022-08-21T03:43:18;95862.69;;;19.53;55.69
53440;BME280;39333;47.044;15.080;2022-08-21T03:45:45;95861.09;;;19.52;54.55
53440;BME280;39333;47.044;15.080;2022-08-21T03:48:12;95856.16;;;19.45;55.65
53440;BME280;39333;47.044;15.080;2022-08-21T03:50:42;95871.00;;;19.43;56.28
53440;BME280;39333;47.044;15.080;2022-08-21T03:53:11;95867.44;;;19.34;55.71
53440;BME280;39333;47.044;15.080;2022-08-21T03:55:48;95864.13;;;19.37;54.93
53440;BME280;39333;47.044;15.080;2022-08-21T03:58:17;95871.47;;;19.45;55.51
53440;BME280;39333;47.044;15.080;2022-08-21T04:00:46;95868.50;;;19.46;54.82
53440;BME280;39333;47.044;15.080;2022-08-21T04:03:13;95863.00;;;19.51;55.23
53440;BME280;39333;47.044;15.080;2022-08-21T04:05:41;95867.28;;;19.52;55.49
53440;BME280;39333;47.044;15.080;2022-08-21T04:08:08;95871.25;;;19.55;55.71
53440;BME280;39333;47.044;15.080;2022-08-21T04:10:37;95870.88;;;19.48;55.56
53440;BME280;39333;47.044;15.080;2022-08-21T04:13:05;95866.09;;;19.45;55.60
53440;BME280;39333;47.044;15.080;2022-08-21T04:15:32;95866.91;;;19.45;55.26
53440;BME280;39333;47.044;15.080;2022-08-21T04:17:59;95868.91;;;19.40;55.51
53440;BME280;39333;47.044;15.080;2022-08-21T04:20:26;95871.78;;;19.43;55.03
53440;BME280;39333;47.044;15.080;2022-08-21T04:22:53;95874.84;;;19.50;55.13
53440;BME280;39333;47.044;15.080;2022-08-21T04:25:21;95871.25;;;19.55;54.68
53440;BME280;39333;47.044;15.080;2022-08-21T04:27:49;95860.50;;;19.55;54.63
53440;BME280;39333;47.044;15.080;2022-08-21T04:30:16;95862.56;;;19.58;54.54
53440;BME280;39333;47.044;15.080;2022-08-21T04:32:45;95865.88;;;19.55;54.92
53440;BME280;39333;47.044;15.080;2022-08-21T04:35:14;95867.47;;;19.56;55.09
53440;BME280;39333;47.044;15.080;2022-08-21T04:37:42;95866.66;;;19.55;54.97
53440;BME280;39333;47.044;15.080;2022-08-21T04:40:11;95869.09;;;19.66;54.81
53440;BME280;39333;47.044;15.080;2022-08-21T04:42:47;95874.53;;;19.74;54.77
53440;BME280;39333;47.044;15.080;2022-08-21T04:45:31;95876.94;;;19.84;55.17
53440;BME280;39333;47.044;15.080;2022-08-21T04:47:59;95883.63;;;19.87;54.84
53440;BME280;39333;47.044;15.080;2022-08-21T04:50:30;95886.47;;;19.90;54.80
53440;BME280;39333;47.044;15.080;2022-08-21T04:53:05;95879.69;;;19.93;54.67
53440;BME280;39333;47.044;15.080;2022-08-21T04:55:34;95879.22;;;19.91;55.09
53440;BME280;39333;47.044;15.080;2022-08-21T04:58:01;95880.00;;;19.91;56.19
53440;BME280;39333;47.044;15.080;2022-08-21T05:00:28;95879.81;;;19.88;54.88
53440;BME280;39333;47.044;15.080;2022-08-21T05:02:55;95885.63;;;19.81;54.44
53440;BME280;39333;47.044;15.080;2022-08-21T05:05:28;95886.38;;;19.73;57.05
53440;BME280;39333;47.044;15.080;2022-08-21T05:07:57;95894.03;;;19.80;55.98
53440;BME280;39333;47.044;15.080;2022-08-21T05:10:25;95889.00;;;19.87;55.41
53440;BME280;39333;47.044;15.080;2022-08-21T05:12:52;95898.22;;;19.95;54.98
53440;BME280;39333;47.044;15.080;2022-08-21T05:15:19;95891.25;;;19.94;53.13
53440;BME280;39333;47.044;15.080;2022-08-21T05:17:46;95892.53;;;19.96;53.30
53440;BME280;39333;47.044;15.080;2022-08-21T05:20:26;95890.31;;;19.98;52.81
53440;BME280;39333;47.044;15.080;2022-08-21T05:22:52;95890.47;;;20.02;52.86
53440;BME280;39333;47.044;15.080;2022-08-21T05:25:19;95892.88;;;20.03;53.44
53440;BME280;39333;47.044;15.080;2022-08-21T05:27:49;95900.63;;;20.05;52.38
53440;BME280;39333;47.044;15.080;2022-08-21T05:30:18;95900.16;;;20.03;52.57
53440;BME280;39333;47.044;15.080;2022-08-21T05:32:46;95903.81;;;20.07;52.53
53440;BME280;39333;47.044;15.080;2022-08-21T05:35:14;95905.22;;;20.04;52.31
53440;BME280;39333;47.044;15.080;2022-08-21T05:37:41;95911.88;;;20.07;52.00
53440;BME280;39333;47.044;15.080;2022-08-21T05:40:08;95919.34;;;20.10;52.00
53440;BME280;39333;47.044;15.080;2022-08-21T05:42:52;95923.16;;;20.09;51.71
53440;BME280;39333;47.044;15.080;2022-08-21T05:45:26;95913.34;;;20.13;51.37
53440;BME280;39333;47.044;15.080;2022-08-21T05:48:19;95918.59;;;20.18;51.58
53440;BME280;39333;47.044;15.080;2022-08-21T05:50:47;95916.50;;;20.15;51.34
53440;BME280;39333;47.044;15.080;2022-08-21T05:53:16;95917.16;;;20.20;52.47
53440;BME280;39333;47.044;15.080;2022-08-21T05:55:44;95915.16;;;20.26;52.45
53440;BME280;39333;47.044;15.080;2022-08-21T05:58:14;95925.75;;;20.31;52.00
53440;BME280;39333;47.044;15.080;2022-08-21T06:00:42;95927.84;;;20.34;52.32
53440;BME280;39333;47.044;15.080;2022-08-21T06:03:18;95925.31;;;20.29;52.13
53440;BME280;39333;47.044;15.080;2022-08-21T06:05:45;95921.81;;;20.29;52.00
53440;BME280;39333;47.044;15.080;2022-08-21T06:08:13;95926.84;;;20.30;52.40
53440;BME280;39333;47.044;15.080;2022-08-21T06:10:40;95929.56;;;20.30;52.70
53440;BME280;39333;47.044;15.080;2022-08-21T06:13:07;95930.03;;;20.32;52.26
53440;BME280;39333;47.044;15.080;2022-08-21T06:15:34;95925.13;;;20.34;51.61
53440;BME280;39333;47.044;15.080;2022-08-21T06:18:01;95916.34;;;20.42;52.37
53440;BME280;39333;47.044;15.080;2022-08-21T06:20:28;95926.81;;;20.52;52.41
53440;BME280;39333;47.044;15.080;2022-08-21T06:22:55;95925.41;;;20.55;52.14
53440;BME280;39333;47.044;15.080;2022-08-21T06:25:22;95915.91;;;20.57;52.26
53440;BME280;39333;47.044;15.080;2022-08-21T06:27:48;95929.69;;;20.56;51.74
53440;BME280;39333;47.044;15.080;2022-08-21T06:30:15;95930.97;;;20.58;51.74
53440;BME280;39333;47.044;15.080;2022-08-21T06:32:42;95934.94;;;20.61;51.71
53440;BME280;39333;47.044;15.080;2022-08-21T06:35:09;95934.31;;;20.64;52.05
53440;BME280;39333;47.044;15.080;2022-08-21T06:37:36;95940.97;;;20.67;51.56
53440;BME280;39333;47.044;15.080;2022-08-21T06:40:04;95936.69;;;20.66;53.14
53440;BME280;39333;47.044;15.080;2022-08-21T06:42:38;95938.75;;;20.60;53.38
53440;BME280;39333;47.044;15.080;2022-08-21T06:45:08;95943.81;;;20.62;53.13
53440;BME280;39333;47.044;15.080;2022-08-21T06:47:35;95947.78;;;20.64;53.36
53440;BME280;39333;47.044;15.080;2022-08-21T06:50:02;95942.25;;;20.60;52.26
53440;BME280;39333;47.044;15.080;2022-08-21T06:52:30;95946.34;;;20.67;52.04
53440;BME280;39333;47.044;15.080;2022-08-21T06:54:56;95948.44;;;20.70;52.21
53440;BME280;39333;47.044;15.080;2022-08-21T06:57:23;95952.22;;;20.69;52.64
53440;BME280;39333;47.044;15.080;2022-08-21T06:59:51;95957.00;;;20.72;52.63
53440;BME280;39333;47.044;15.080;2022-08-21T07:02:18;95957.94;;;20.67;53.05
53440;BME280;39333;47.044;15.080;2022-08-21T07:04:45;95963.63;;;20.66;52.90
53440;BME280;39333;47.044;15.080;2022-08-21T07:07:12;95952.66;;;20.62;53.46
53440;BME280;39333;47.044;15.080;2022-08-21T07:09:38;95960.31;;;20.69;52.90
53440;BME280;39333;47.044;15.080;2022-08-21T07:12:06;95959.38;;;20.73;53.36
53440;BME280;39333;47.044;15.080;2022-08-21T07:14:33;95960.19;;;20.74;53.02
53440;BME280;39333;47.044;15.080;2022-08-21T07:16:59;95952.41;;;20.72;53.18
53440;BME280;39333;47.044;15.080;2022-08-21T07:19:27;95962.56;;;20.75;53.31
53440;BME280;39333;47.044;15.080;2022-08-21T07:21:57;95955.91;;;20.73;52.76
53440;BME280;39333;47.044;15.080;2022-08-21T07:24:25;95953.69;;;20.75;52.42
53440;BME280;39333;47.044;15.080;2022-08-21T07:26:52;95952.91;;;20.83;51.77
53440;BME280;39333;47.044;15.080;2022-08-21T07:29:19;95955.94;;;20.90;53.12
53440;BME280;39333;47.044;15.080;2022-08-21T07:31:45;95961.03;;;21.00;52.43
53440;BME280;39333;47.044;15.080;2022-08-21T07:34:12;95963.59;;;21.05;52.29
53440;BME280;39333;47.044;15.080;2022-08-21T07:36:39;95968.81;;;21.10;53.29
53440;BME280;39333;47.044;15.080;2022-08-21T07:39:06;95971.97;;;21.12;53.22
53440;BME280;39333;47.044;15.080;2022-08-21T07:41:34;95967.69;;;21.11;51.73
53440;BME280;39333;47.044;15.080;2022-08-21T07:44:02;95963.16;;;21.20;52.53
53440;BME280;39333;47.044;15.080;2022-08-21T07:46:32;95957.75;;;21.29;52.86
53440;BME280;39333;47.044;15.080;2022-08-21T07:48:59;95953.19;;;21.38;52.41
53440;BME280;39333;47.044;15.080;2022-08-21T07:51:27;95959.19;;;21.44;51.82
53440;BME280;39333;47.044;15.080;2022-08-21T07:53:56;95959.03;;;21.49;51.78
53440;BME280;39333;47.044;15.080;2022-08-21T07:56:23;95960.97;;;21.57;52.25
53440;BME280;39333;47.044;15.080;2022-08-21T07:58:50;95964.59;;;21.61;51.39
53440;BME280;39333;47.044;15.080;2022-08-21T08:01:17;95959.84;;;21.67;50.91
53440;BME280;39333;47.044;15.080;2022-08-21T08:03:44;95954.44;;;21.67;50.39
53440;BME280;39333;47.044;15.080;2022-08-21T08:06:11;95950.78;;;21.71;49.49
53440;BME280;39333;47.044;15.080;2022-08-21T08:08:43;95946.81;;;21.86;50.46
53440;BME280;39333;47.044;15.080;2022-08-21T08:11:10;95953.00;;;21.86;50.64
53440;BME280;39333;47.044;15.080;2022-08-21T08:13:43;95943.59;;;21.92;50.54
53440;BME280;39333;47.044;15.080;2022-08-21T08:16:10;95955.69;;;22.04;51.01
53440;BME280;39333;47.044;15.080;2022-08-21T08:18:37;95958.53;;;22.07;50.66
53440;BME280;39333;47.044;15.080;2022-08-21T08:21:04;95956.75;;;22.11;50.88
53440;BME280;39333;47.044;15.080;2022-08-21T08:23:32;95959.34;;;22.08;50.92
53440;BME280;39333;47.044;15.080;2022-08-21T08:25:59;95952.69;;;22.05;50.83
53440;BME280;39333;47.044;15.080;2022-08-21T08:28:26;95936.31;;;22.02;52.32
53440;BME280;39333;47.044;15.080;2022-08-21T08:30:54;95945.47;;;22.18;50.75
53440;BME280;39333;47.044;15.080;2022-08-21T08:33:21;95940.84;;;22.27;50.42
53440;BME280;39333;47.044;15.080;2022-08-21T08:35:50;95936.69;;;22.38;51.56
53440;BME280;39333;47.044;15.080;2022-08-21T08:38:20;95950.31;;;22.42;49.94
53440;BME280;39333;47.044;15.080;2022-08-21T08:43:20;95947.03;;;22.36;50.40
53440;BME280;39333;47.044;15.080;2022-08-21T08:45:50;95947.44;;;22.47;51.17
53440;BME280;39333;47.044;15.080;2022-08-21T08:51:25;95955.09;;;22.74;49.90
53440;BME280;39333;47.044;15.080;2022-08-21T08:53:59;95949.94;;;22.98;49.76
53440;BME280;39333;47.044;15.080;2022-08-21T08:56:30;95949.22;;;23.10;49.76
53440;BME280;39333;47.044;15.080;2022-08-21T08:59:07;95948.22;;;23.15;47.90
53440;BME280;39333;47.044;15.080;2022-08-21T09:01:34;95950.28;;;23.38;49.25
53440;BME280;39333;47.044;15.080;2022-08-21T09:04:05;95941.41;;;23.59;49.12
53440;BME280;39333;47.044;15.080;2022-08-21T09:12:25;95964.88;;;23.46;46.04
53440;BME280;39333;47.044;15.080;2022-08-21T09:24:29;95949.44;;;23.47;45.76
53440;BME280;39333;47.044;15.080;2022-08-21T09:26:55;95950.34;;;23.51;46.30
53440;BME280;39333;47.044;15.080;2022-08-21T09:29:27;95948.75;;;23.70;47.40
53440;BME280;39333;47.044;15.080;2022-08-21T09:31:56;95942.69;;;23.73;46.98
53440;BME280;39333;47.044;15.080;2022-08-21T09:34:29;95940.94;;;23.57;46.29
53440;BME280;39333;47.044;15.080;2022-08-21T09:36:56;95941.50;;;23.42;47.02
53440;BME280;39333;47.044;15.080;2022-08-21T09:39:26;95942.25;;;23.51;47.25
53440;BME280;39333;47.044;15.080;2022-08-21T09:41:59;95942.75;;;23.53;46.58
53440;BME280;39333;47.044;15.080;2022-08-21T09:44:29;95938.91;;;23.54;46.62
53440;BME280;39333;47.044;15.080;2022-08-21T09:46:56;95941.31;;;23.47;46.96
53440;BME280;39333;47.044;15.080;2022-08-21T09:49:32;95935.44;;;23.45;46.39
53440;BME280;39333;47.044;15.080;2022-08-21T09:51:59;95931.56;;;23.54;46.21
53440;BME280;39333;47.044;15.080;2022-08-21T09:54:36;95946.28;;;23.65;46.72
53440;BME280;39333;47.044;15.080;2022-08-21T09:57:14;95940.03;;;23.53;47.14
53440;BME280;39333;47.044;15.080;2022-08-21T10:00:25;95938.75;;;23.50;45.83
53440;BME280;39333;47.044;15.080;2022-08-21T10:02:52;95937.94;;;23.50;46.18
53440;BME280;39333;47.044;15.080;2022-08-21T10:05:25;95940.53;;;23.46;45.60
53440;BME280;39333;47.044;15.080;2022-08-21T10:07:52;95928.31;;;23.19;46.33
53440;BME280;39333;47.044;15.080;2022-08-21T10:10:26;95939.66;;;23.33;46.33
53440;BME280;39333;47.044;15.080;2022-08-21T10:20:45;95925.41;;;23.45;47.14
53440;BME280;39333;47.044;15.080;2022-08-21T10:31:28;95932.97;;;24.05;45.60
53440;BME280;39333;47.044;15.080;2022-08-21T10:39:52;95912.88;;;23.94;45.93
53440;BME280;39333;47.044;15.080;2022-08-21T10:42:29;95909.09;;;24.20;45.63
53440;BME280;39333;47.044;15.080;2022-08-21T10:45:07;95914.34;;;24.37;45.29
53440;BME280;39333;47.044;15.080;2022-08-21T10:50:16;95915.03;;;24.46;44.18
53440;BME280;39333;47.044;15.080;2022-08-21T10:56:01;95916.63;;;24.47;45.89
53440;BME280;39333;47.044;15.080;2022-08-21T10:58:31;95923.84;;;24.55;42.60
53440;BME280;39333;47.044;15.080;2022-08-21T11:01:12;95915.34;;;24.69;44.55
53440;BME280;39333;47.044;15.080;2022-08-21T11:03:45;95915.38;;;24.45;44.36
53440;BME280;39333;47.044;15.080;2022-08-21T11:06:16;95919.69;;;24.13;42.86
53440;BME280;39333;47.044;15.080;2022-08-21T11:08:46;95928.16;;;23.78;44.36
53440;BME280;39333;47.044;15.080;2022-08-21T11:14:16;95919.03;;;24.16;44.23
53440;BME280;39333;47.044;15.080;2022-08-21T11:16:56;95915.13;;;24.25;44.51
53440;BME280;39333;47.044;15.080;2022-08-21T11:19:45;95910.28;;;24.31;44.55
53440;BME280;39333;47.044;15.080;2022-08-21T11:24:52;95909.19;;;23.66;44.54
53440;BME280;39333;47.044;15.080;2022-08-21T11:27:38;95906.00;;;23.64;43.64
53440;BME280;39333;47.044;15.080;2022-08-21T11:30:07;95908.06;;;23.67;43.78
53440;BME280;39333;47.044;15.080;2022-08-21T11:35:48;95895.63;;;23.54;44.17
53440;BME280;39333;47.044;15.080;2022-08-21T11:54:33;95917.66;;;24.67;43.07
53440;BME280;39333;47.044;15.080;2022-08-21T11:57:13;95910.75;;;24.33;43.65
53440;BME280;39333;47.044;15.080;2022-08-21T12:00:04;95908.69;;;24.42;44.03
53440;BME280;39333;47.044;15.080;2022-08-21T12:02:44;95913.53;;;24.36;42.39
53440;BME280;39333;47.044;15.080;2022-08-21T12:05:25;95912.75;;;24.24;43.00
53440;BME280;39333;47.044;15.080;2022-08-21T12:08:15;95903.66;;;24.07;43.87
53440;BME280;39333;47.044;15.080;2022-08-21T12:11:10;95907.13;;;24.41;43.96
53440;BME280;39333;47.044;15.080;2022-08-21T12:16:36;95907.69;;;24.47;44.01
53440;BME280;39333;47.044;15.080;2022-08-21T12:19:27;95908.16;;;24.49;43.93
53440;BME280;39333;47.044;15.080;2022-08-21T12:22:13;95896.06;;;24.46;42.41
53440;BME280;39333;47.044;15.080;2022-08-21T12:24:48;95897.19;;;24.45;42.53
53440;BME280;39333;47.044;15.080;2022-08-21T12:27:30;95892.16;;;24.23;42.67
53440;BME280;39333;47.044;15.080;2022-08-21T12:33:00;95895.84;;;24.06;44.15
53440;BME280;39333;47.044;15.080;2022-08-21T12:38:12;95894.13;;;23.89;44.70
53440;BME280;39333;47.044;15.080;2022-08-21T12:41:06;95890.41;;;23.82;45.22
53440;BME280;39333;47.044;15.080;2022-08-21T12:43:42;95896.59;;;23.82;45.22
53440;BME280;39333;47.044;15.080;2022-08-21T12:46:17;95888.66;;;23.65;44.46
53440;BME280;39333;47.044;15.080;2022-08-21T12:48:51;95897.34;;;23.70;44.79
53440;BME280;39333;47.044;15.080;2022-08-21T12:51:23;95897.81;;;23.72;45.59
53440;BME280;39333;47.044;15.080;2022-08-21T12:53:53;95894.13;;;23.89;46.13
53440;BME280;39333;47.044;15.080;2022-08-21T12:56:26;95899.34;;;23.94;45.99
53440;BME280;39333;47.044;15.080;2022-08-21T12:59:12;95893.31;;;23.77;46.42
53440;BME280;39333;47.044;15.080;2022-08-21T13:01:48;95898.56;;;23.61;44.89
53440;BME280;39333;47.044;15.080;2022-08-21T13:04:18;95890.19;;;23.54;45.84
53440;BME280;39333;47.044;15.080;2022-08-21T13:06:50;95899.16;;;23.46;46.45
53440;BME280;39333;47.044;15.080;2022-08-21T13:09:24;95902.50;;;23.43;47.42
53440;BME280;39333;47.044;15.080;2022-08-21T13:11:52;95902.03;;;23.41;47.00
53440;BME280;39333;47.044;15.080;2022-08-21T13:16:57;95902.78;;;23.29;47.58
53440;BME280;39333;47.044;15.080;2022-08-21T13:19:25;95903.50;;;23.38;47.30
53440;BME280;39333;47.044;15.080;2022-08-21T13:21:53;95910.09;;;23.28;47.09
53440;BME280;39333;47.044;15.080;2022-08-21T13:24:26;95917.16;;;23.00;47.83
53440;BME280;39333;47.044;15.080;2022-08-21T13:27:28;95919.84;;;23.00;49.08
53440;BME280;39333;47.044;15.080;2022-08-21T13:30:11;95917.31;;;23.03;48.32
53440;BME280;39333;47.044;15.080;2022-08-21T13:32:47;95921.84;;;23.12;49.06
53440;BME280;39333;47.044;15.080;2022-08-21T13:35:36;95926.84;;;23.01;48.53
53440;BME280;39333;47.044;15.080;2022-08-21T13:38:11;95918.47;;;22.94;48.83
53440;BME280;39333;47.044;15.080;2022-08-21T13:40:44;95925.22;;;22.79;49.07
53440;BME280;39333;47.044;15.080;2022-08-21T13:43:17;95930.84;;;22.65;49.96
53440;BME280;39333;47.044;15.080;2022-08-21T13:45:50;95934.97;;;22.63;50.80
53440;BME280;39333;47.044;15.080;2022-08-21T13:48:18;95934.72;;;22.47;50.21
53440;BME280;39333;47.044;15.080;2022-08-21T13:50:46;95935.28;;;22.32;50.94
53440;BME280;39333;47.044;15.080;2022-08-21T13:53:26;95940.13;;;22.47;51.37
53440;BME280;39333;47.044;15.080;2022-08-21T13:55:54;95948.56;;;22.46;50.89
53440;BME280;39333;47.044;15.080;2022-08-21T13:58:31;95944.78;;;22.38;51.25
53440;BME280;39333;47.044;15.080;2022-08-21T14:01:00;95939.50;;;22.50;51.27
53440;BME280;39333;47.044;15.080;2022-08-21T14:03:36;95949.50;;;22.50;51.63
53440;BME280;39333;47.044;15.080;2022-08-21T14:06:18;95945.94;;;22.66;51.23
53440;BME280;39333;47.044;15.080;2022-08-21T14:08:56;95942.84;;;22.47;51.33
53440;BME280;39333;47.044;15.080;2022-08-21T14:11:25;95946.97;;;22.45;51.44
53440;BME280;39333;47.044;15.080;2022-08-21T14:14:01;95945.31;;;22.23;51.71
53440;BME280;39333;47.044;15.080;2022-08-21T14:16:45;95938.81;;;22.15;52.23
53440;BME280;39333;47.044;15.080;2022-08-21T14:19:20;95942.97;;;21.95;51.76
53440;BME280;39333;47.044;15.080;2022-08-21T14:21:47;95943.94;;;21.91;52.17
53440;BME280;39333;47.044;15.080;2022-08-21T14:29:25;95931.06;;;21.96;52.55
53440;BME280;39333;47.044;15.080;2022-08-21T14:31:58;95941.69;;;22.10;53.14
53440;BME280;39333;47.044;15.080;2022-08-21T14:34:28;95929.66;;;22.08;51.43
53440;BME280;39333;47.044;15.080;2022-08-21T14:37:01;95931.75;;;22.40;52.06
53440;BME280;39333;47.044;15.080;2022-08-21T14:39:28;95935.69;;;22.51;51.72